sensor_id;sensor_type;location;lat;lon;timestamp;temperature;humidity
44695;DHT22;32845;59.422;17.930;2022-12-18T00:03:55;-0.60;99.90
44695;DHT22;32845;59.422;17.930;2022-12-18T00:08:26;-0.50;99.90
44695;DHT22;32845;59.422;17.930;2022-12-18T00:12:56;-0.50;99.90
44695;DHT22;32845;59.422;17.930;2022-12-18T00:17:27;-0.50;99.90
44695;DHT22;32845;59.422;17.930;2022-12-18T00:21:58;-0.50;99.90
44695;DHT22;32845;59.422;17.930;2022-12-18T00:26:30;-0.40;99.90
44695;DHT22;32845;59.422;17.930;2022-12-18T00:31:03;-0.40;99.90
44695;DHT22;32845;59.422;17.930;2022-12-18T00:35:34;-0.40;99.90
44695;DHT22;32845;59.422;17.930;2022-12-18T00:40:05;-0.40;99.90
44695;DHT22;32845;59.422;17.930;2022-12-18T00:44:36;-0.40;99.90
44695;DHT22;32845;59.422;17.930;2022-12-18T00:49:06;-0.40;99.90
44695;DHT22;32845;59.422;17.930;2022-12-18T00:53:37;-0.30;99.90
44695;DHT22;32845;59.422;17.930;2022-12-18T00:58:09;-0.30;99.90
44695;DHT22;32845;59.422;17.930;2022-12-18T01:02:41;-0.30;99.90
44695;DHT22;32845;59.422;17.930;2022-12-18T01:07:12;-0.30;99.90
44695;DHT22;32845;59.422;17.930;2022-12-18T01:11:42;-0.30;99.90
44695;DHT22;32845;59.422;17.930;2022-12-18T01:16:15;-0.30;99.90
44695;DHT22;32845;59.422;17.930;2022-12-18T01:20:46;-0.20;99.90
44695;DHT22;32845;59.422;17.930;2022-12-18T01:25:17;-0.20;99.90
44695;DHT22;32845;59.422;17.930;2022-12-18T01:29:49;-0.20;99.90
44695;DHT22;32845;59.422;17.930;2022-12-18T01:34:19;-0.20;99.90
44695;DHT22;32845;59.422;17.930;2022-12-18T01:38:50;-0.10;99.90
44695;DHT22;32845;59.422;17.930;2022-12-18T01:43:56;-0.10;99.90
44695;DHT22;32845;59.422;17.930;2022-12-18T01:48:27;-0.10;99.90
44695;DHT22;32845;59.422;17.930;2022-12-18T01:53:07;-0.10;99.90
44695;DHT22;32845;59.422;17.930;2022-12-18T01:57:40;-0.10;99.90
44695;DHT22;32845;59.422;17.930;2022-12-18T02:02:11;-0.10;99.90
44695;DHT22;32845;59.422;17.930;2022-12-18T02:06:42;0.00;99.90
44695;DHT22;32845;59.422;17.930;2022-12-18T02:21:12;0.00;99.90
44695;DHT22;32845;59.422;17.930;2022-12-18T02:30:35;0.00;99.90
44695;DHT22;32845;59.422;17.930;2022-12-18T02:35:13;0.00;99.90
44695;DHT22;32845;59.422;17.930;2022-12-18T02:39:46;0.10;99.90
44695;DHT22;32845;59.422;17.930;2022-12-18T02:44:17;0.10;99.90
44695;DHT22;32845;59.422;17.930;2022-12-18T02:48:49;0.10;99.90
44695;DHT22;32845;59.422;17.930;2022-12-18T02:58:34;0.10;99.90
44695;DHT22;32845;59.422;17.930;2022-12-18T03:03:18;0.00;99.90
44695;DHT22;32845;59.422;17.930;2022-12-18T03:12:39;0.00;99.90
44695;DHT22;32845;59.422;17.930;2022-12-18T03:17:13;0.00;99.90
44695;DHT22;32845;59.422;17.930;2022-12-18T03:21:49;0.00;99.90
44695;DHT22;32845;59.422;17.930;2022-12-18T03:26:24;0.00;99.90
44695;DHT22;32845;59.422;17.930;2022-12-18T03:30:58;0.00;99.90
44695;DHT22;32845;59.422;17.930;2022-12-18T03:35:35;0.00;99.90
44695;DHT22;32845;59.422;17.930;2022-12-18T03:40:07;0.00;99.90
44695;DHT22;32845;59.422;17.930;2022-12-18T03:49:52;-0.10;99.90
44695;DHT22;32845;59.422;17.930;2022-12-18T03:54:27;-0.10;99.90
44695;DHT22;32845;59.422;17.930;2022-12-18T03:58:59;-0.10;99.90
44695;DHT22;32845;59.422;17.930;2022-12-18T04:03:32;-0.20;99.90
44695;DHT22;32845;59.422;17.930;2022-12-18T04:08:04;-0.20;99.90
44695;DHT22;32845;59.422;17.930;2022-12-18T04:12:37;-0.20;99.90
44695;DHT22;32845;59.422;17.930;2022-12-18T04:17:08;-0.20;99.90
44695;DHT22;32845;59.422;17.930;2022-12-18T04:21:39;-0.20;99.90
44695;DHT22;32845;59.422;17.930;2022-12-18T04:26:09;-0.30;99.90
44695;DHT22;32845;59.422;17.930;2022-12-18T04:30:40;-0.30;99.90
44695;DHT22;32845;59.422;17.930;2022-12-18T04:35:11;-0.20;99.90
44695;DHT22;32845;59.422;17.930;2022-12-18T04:39:42;-0.30;99.90
44695;DHT22;32845;59.422;17.930;2022-12-18T04:44:13;-0.30;99.90
44695;DHT22;32845;59.422;17.930;2022-12-18T04:48:45;-0.20;99.90
44695;DHT22;32845;59.422;17.930;2022-12-18T04:53:16;-0.30;99.90
44695;DHT22;32845;59.422;17.930;2022-12-18T04:57:47;-0.30;99.90
44695;DHT22;32845;59.422;17.930;2022-12-18T05:02:17;-0.30;99.90
44695;DHT22;32845;59.422;17.930;2022-12-18T05:06:48;-0.30;99.90
44695;DHT22;32845;59.422;17.930;2022-12-18T05:11:19;-0.30;99.90
44695;DHT22;32845;59.422;17.930;2022-12-18T05:15:53;-0.30;99.90
44695;DHT22;32845;59.422;17.930;2022-12-18T05:20:25;-0.30;99.90
44695;DHT22;32845;59.422;17.930;2022-12-18T05:24:55;-0.30;99.90
44695;DHT22;32845;59.422;17.930;2022-12-18T05:29:26;-0.40;99.90
44695;DHT22;32845;59.422;17.930;2022-12-18T05:33:57;-0.30;99.90
44695;DHT22;32845;59.422;17.930;2022-12-18T05:38:29;-0.30;99.90
44695;DHT22;32845;59.422;17.930;2022-12-18T05:43:00;-0.30;99.90
44695;DHT22;32845;59.422;17.930;2022-12-18T05:47:31;-0.30;99.90
44695;DHT22;32845;59.422;17.930;2022-12-18T05:52:01;-0.20;99.90
44695;DHT22;32845;59.422;17.930;2022-12-18T05:56:32;-0.20;99.90
44695;DHT22;32845;59.422;17.930;2022-12-18T06:01:16;-0.20;99.90
44695;DHT22;32845;59.422;17.930;2022-12-18T06:05:47;-0.20;99.90
44695;DHT22;32845;59.422;17.930;2022-12-18T06:10:18;-0.10;99.90
44695;DHT22;32845;59.422;17.930;2022-12-18T06:14:48;-0.10;99.90
44695;DHT22;32845;59.422;17.930;2022-12-18T06:19:19;0.00;99.90
44695;DHT22;32845;59.422;17.930;2022-12-18T06:23:50;0.00;99.90
44695;DHT22;32845;59.422;17.930;2022-12-18T06:28:20;0.00;99.90
44695;DHT22;32845;59.422;17.930;2022-12-18T06:32:51;0.00;99.90
44695;DHT22;32845;59.422;17.930;2022-12-18T06:37:22;0.00;99.90
44695;DHT22;32845;59.422;17.930;2022-12-18T06:41:56;0.00;99.90
44695;DHT22;32845;59.422;17.930;2022-12-18T06:46:27;0.00;99.90
44695;DHT22;32845;59.422;17.930;2022-12-18T06:50:58;0.00;99.90
44695;DHT22;32845;59.422;17.930;2022-12-18T06:55:28;0.00;99.90
44695;DHT22;32845;59.422;17.930;2022-12-18T07:00:06;0.00;99.90
44695;DHT22;32845;59.422;17.930;2022-12-18T07:04:37;0.00;99.90
44695;DHT22;32845;59.422;17.930;2022-12-18T07:09:08;0.00;99.90
44695;DHT22;32845;59.422;17.930;2022-12-18T07:13:38;0.00;99.90
44695;DHT22;32845;59.422;17.930;2022-12-18T07:18:10;0.10;99.90
44695;DHT22;32845;59.422;17.930;2022-12-18T07:22:40;0.00;99.90
44695;DHT22;32845;59.422;17.930;2022-12-18T07:27:11;0.00;99.90
44695;DHT22;32845;59.422;17.930;2022-12-18T07:31:42;0.00;99.90
44695;DHT22;32845;59.422;17.930;2022-12-18T07:36:13;0.00;99.90
44695;DHT22;32845;59.422;17.930;2022-12-18T07:40:43;0.00;99.90
44695;DHT22;32845;59.422;17.930;2022-12-18T07:45:14;0.00;99.90
44695;DHT22;32845;59.422;17.930;2022-12-18T07:49:45;0.00;99.90
44695;DHT22;32845;59.422;17.930;2022-12-18T07:54:20;0.10;99.90
44695;DHT22;32845;59.422;17.930;2022-12-18T07:58:51;0.10;99.90
44695;DHT22;32845;59.422;17.930;2022-12-18T08:03:27;0.10;99.90
44695;DHT22;32845;59.422;17.930;2022-12-18T08:07:58;0.20;99.90
44695;DHT22;32845;59.422;17.930;2022-12-18T08:12:33;0.20;99.90
44695;DHT22;32845;59.422;17.930;2022-12-18T08:17:04;0.30;99.90
44695;DHT22;32845;59.422;17.930;2022-12-18T08:21:40;0.40;99.90
44695;DHT22;32845;59.422;17.930;2022-12-18T08:26:11;0.40;99.90
44695;DHT22;32845;59.422;17.930;2022-12-18T08:30:42;0.50;99.90
44695;DHT22;32845;59.422;17.930;2022-12-18T08:35:13;0.50;99.90
44695;DHT22;32845;59.422;17.930;2022-12-18T08:39:44;0.60;99.90
44695;DHT22;32845;59.422;17.930;2022-12-18T08:44:14;0.70;99.90
44695;DHT22;32845;59.422;17.930;2022-12-18T08:49:20;0.70;99.90
44695;DHT22;32845;59.422;17.930;2022-12-18T08:53:56;0.80;99.90
44695;DHT22;32845;59.422;17.930;2022-12-18T08:58:27;0.90;99.90
44695;DHT22;32845;59.422;17.930;2022-12-18T09:03:02;0.90;99.90
44695;DHT22;32845;59.422;17.930;2022-12-18T09:07:33;1.00;99.90
44695;DHT22;32845;59.422;17.930;2022-12-18T09:12:04;1.10;99.90
44695;DHT22;32845;59.422;17.930;2022-12-18T09:16:34;1.20;99.90
44695;DHT22;32845;59.422;17.930;2022-12-18T09:21:23;1.30;99.90
44695;DHT22;32845;59.422;17.930;2022-12-18T09:25:58;1.30;99.90
44695;DHT22;32845;59.422;17.930;2022-12-18T09:30:30;1.40;99.90
44695;DHT22;32845;59.422;17.930;2022-12-18T09:35:00;1.40;99.90
44695;DHT22;32845;59.422;17.930;2022-12-18T09:39:31;1.40;99.90
44695;DHT22;32845;59.422;17.930;2022-12-18T09:44:25;1.40;99.90
44695;DHT22;32845;59.422;17.930;2022-12-18T09:49:00;1.40;99.90
44695;DHT22;32845;59.422;17.930;2022-12-18T09:53:35;1.50;99.90
44695;DHT22;32845;59.422;17.930;2022-12-18T10:03:14;1.60;99.90
44695;DHT22;32845;59.422;17.930;2022-12-18T10:12:39;1.70;99.90
44695;DHT22;32845;59.422;17.930;2022-12-18T10:27:18;1.90;99.90
44695;DHT22;32845;59.422;17.930;2022-12-18T10:31:48;1.90;99.90
44695;DHT22;32845;59.422;17.930;2022-12-18T10:36:20;1.90;99.90
44695;DHT22;32845;59.422;17.930;2022-12-18T10:45:25;2.00;99.90
44695;DHT22;32845;59.422;17.930;2022-12-18T10:49:56;2.00;99.90
44695;DHT22;32845;59.422;17.930;2022-12-18T10:54:29;2.00;99.90
44695;DHT22;32845;59.422;17.930;2022-12-18T10:59:06;2.10;99.90
44695;DHT22;32845;59.422;17.930;2022-12-18T11:08:26;2.10;99.90
44695;DHT22;32845;59.422;17.930;2022-12-18T11:13:14;2.10;99.90
44695;DHT22;32845;59.422;17.930;2022-12-18T11:17:48;2.10;99.90
44695;DHT22;32845;59.422;17.930;2022-12-18T11:22:28;2.10;99.90
44695;DHT22;32845;59.422;17.930;2022-12-18T11:27:01;2.10;99.90
44695;DHT22;32845;59.422;17.930;2022-12-18T11:31:37;2.10;99.90
44695;DHT22;32845;59.422;17.930;2022-12-18T11:36:09;2.20;99.90
44695;DHT22;32845;59.422;17.930;2022-12-18T11:40:43;2.20;99.90
44695;DHT22;32845;59.422;17.930;2022-12-18T11:45:20;2.20;99.90
44695;DHT22;32845;59.422;17.930;2022-12-18T11:49:53;2.20;99.90
44695;DHT22;32845;59.422;17.930;2022-12-18T11:54:25;2.20;99.90
44695;DHT22;32845;59.422;17.930;2022-12-18T11:59:15;2.30;99.90
44695;DHT22;32845;59.422;17.930;2022-12-18T12:23:12;2.40;99.90
44695;DHT22;32845;59.422;17.930;2022-12-18T12:27:58;2.40;99.90
44695;DHT22;32845;59.422;17.930;2022-12-18T12:32:38;2.50;99.90
44695;DHT22;32845;59.422;17.930;2022-12-18T12:42:08;2.50;99.90
44695;DHT22;32845;59.422;17.930;2022-12-18T12:47:26;2.60;99.90
44695;DHT22;32845;59.422;17.930;2022-12-18T12:52:34;2.60;99.90
44695;DHT22;32845;59.422;17.930;2022-12-18T13:11:37;2.70;99.90
44695;DHT22;32845;59.422;17.930;2022-12-18T13:16:27;2.80;99.90
44695;DHT22;32845;59.422;17.930;2022-12-18T13:25:36;2.80;99.90
44695;DHT22;32845;59.422;17.930;2022-12-18T13:39:53;2.90;99.90
44695;DHT22;32845;59.422;17.930;2022-12-18T13:49:04;2.90;99.90
44695;DHT22;32845;59.422;17.930;2022-12-18T13:53:46;3.00;99.90
44695;DHT22;32845;59.422;17.930;2022-12-18T13:58:18;2.90;99.90
44695;DHT22;32845;59.422;17.930;2022-12-18T14:02:49;2.90;99.90
44695;DHT22;32845;59.422;17.930;2022-12-18T14:07:25;3.00;99.90
44695;DHT22;32845;59.422;17.930;2022-12-18T14:11:57;3.00;99.90
44695;DHT22;32845;59.422;17.930;2022-12-18T14:16:47;3.00;99.90
44695;DHT22;32845;59.422;17.930;2022-12-18T14:21:30;3.00;99.90
44695;DHT22;32845;59.422;17.930;2022-12-18T14:26:25;3.10;99.90
44695;DHT22;32845;59.422;17.930;2022-12-18T14:30:55;3.10;99.90
44695;DHT22;32845;59.422;17.930;2022-12-18T14:35:26;3.10;99.90
44695;DHT22;32845;59.422;17.930;2022-12-18T14:40:02;3.00;99.90
44695;DHT22;32845;59.422;17.930;2022-12-18T14:44:33;3.00;99.90
44695;DHT22;32845;59.422;17.930;2022-12-18T14:54:06;2.90;99.90
44695;DHT22;32845;59.422;17.930;2022-12-18T14:58:57;2.90;99.90
44695;DHT22;32845;59.422;17.930;2022-12-18T15:03:28;2.90;99.90
44695;DHT22;32845;59.422;17.930;2022-12-18T15:08:00;2.90;99.90
44695;DHT22;32845;59.422;17.930;2022-12-18T15:12:40;2.90;99.90
44695;DHT22;32845;59.422;17.930;2022-12-18T15:17:18;2.90;99.90
44695;DHT22;32845;59.422;17.930;2022-12-18T15:21:49;3.00;99.90
44695;DHT22;32845;59.422;17.930;2022-12-18T15:26:21;3.00;99.90
44695;DHT22;32845;59.422;17.930;2022-12-18T15:35:33;3.00;99.90
44695;DHT22;32845;59.422;17.930;2022-12-18T15:40:04;3.00;99.90
44695;DHT22;32845;59.422;17.930;2022-12-18T15:44:35;3.00;99.90
44695;DHT22;32845;59.422;17.930;2022-12-18T15:49:08;3.10;99.90
44695;DHT22;32845;59.422;17.930;2022-12-18T15:53:38;3.10;99.90
44695;DHT22;32845;59.422;17.930;2022-12-18T15:58:10;3.10;99.90
44695;DHT22;32845;59.422;17.930;2022-12-18T16:02:41;3.10;99.90
44695;DHT22;32845;59.422;17.930;2022-12-18T16:07:12;3.10;99.90
44695;DHT22;32845;59.422;17.930;2022-12-18T16:11:43;3.10;99.90
44695;DHT22;32845;59.422;17.930;2022-12-18T16:16:16;3.10;99.90
44695;DHT22;32845;59.422;17.930;2022-12-18T16:20:47;3.10;99.90
44695;DHT22;32845;59.422;17.930;2022-12-18T16:25:26;3.10;99.90
44695;DHT22;32845;59.422;17.930;2022-12-18T16:29:56;3.10;99.90
44695;DHT22;32845;59.422;17.930;2022-12-18T16:34:32;3.10;99.90
44695;DHT22;32845;59.422;17.930;2022-12-18T16:39:04;3.10;99.90
44695;DHT22;32845;59.422;17.930;2022-12-18T16:43:35;3.00;99.90
44695;DHT22;32845;59.422;17.930;2022-12-18T16:48:06;3.00;99.90
44695;DHT22;32845;59.422;17.930;2022-12-18T16:52:37;3.00;99.90
44695;DHT22;32845;59.422;17.930;2022-12-18T16:57:10;2.90;99.90
44695;DHT22;32845;59.422;17.930;2022-12-18T17:01:47;2.90;99.90
44695;DHT22;32845;59.422;17.930;2022-12-18T17:06:18;2.80;99.90
44695;DHT22;32845;59.422;17.930;2022-12-18T17:10:49;2.80;99.90
44695;DHT22;32845;59.422;17.930;2022-12-18T17:15:19;2.80;99.90
44695;DHT22;32845;59.422;17.930;2022-12-18T17:19:51;2.70;99.90
44695;DHT22;32845;59.422;17.930;2022-12-18T17:24:22;2.60;99.90
44695;DHT22;32845;59.422;17.930;2022-12-18T17:28:55;2.60;99.90
44695;DHT22;32845;59.422;17.930;2022-12-18T17:33:26;2.60;99.90
44695;DHT22;32845;59.422;17.930;2022-12-18T17:37:57;2.60;99.90
44695;DHT22;32845;59.422;17.930;2022-12-18T17:42:28;2.50;99.90
44695;DHT22;32845;59.422;17.930;2022-12-18T17:46:59;2.50;99.90
44695;DHT22;32845;59.422;17.930;2022-12-18T17:51:30;2.50;99.90
44695;DHT22;32845;59.422;17.930;2022-12-18T17:56:01;2.50;99.90
44695;DHT22;32845;59.422;17.930;2022-12-18T18:00:31;2.50;99.90
44695;DHT22;32845;59.422;17.930;2022-12-18T18:05:02;2.50;99.90
44695;DHT22;32845;59.422;17.930;2022-12-18T18:09:33;2.50;99.90
44695;DHT22;32845;59.422;17.930;2022-12-18T18:14:06;2.50;99.90
44695;DHT22;32845;59.422;17.930;2022-12-18T18:18:38;2.50;99.90
44695;DHT22;32845;59.422;17.930;2022-12-18T18:23:09;2.50;99.90
44695;DHT22;32845;59.422;17.930;2022-12-18T18:27:39;2.50;99.90
44695;DHT22;32845;59.422;17.930;2022-12-18T18:32:10;2.50;99.90
44695;DHT22;32845;59.422;17.930;2022-12-18T18:36:41;2.40;99.90
44695;DHT22;32845;59.422;17.930;2022-12-18T18:41:12;2.40;99.90
44695;DHT22;32845;59.422;17.930;2022-12-18T18:45:42;2.40;99.90
44695;DHT22;32845;59.422;17.930;2022-12-18T18:50:13;2.40;99.90
44695;DHT22;32845;59.422;17.930;2022-12-18T18:54:46;2.30;99.90
44695;DHT22;32845;59.422;17.930;2022-12-18T18:59:17;2.30;99.90
44695;DHT22;32845;59.422;17.930;2022-12-18T19:03:48;2.30;99.90
44695;DHT22;32845;59.422;17.930;2022-12-18T19:08:19;2.30;99.90
44695;DHT22;32845;59.422;17.930;2022-12-18T19:12:50;2.30;99.90
44695;DHT22;32845;59.422;17.930;2022-12-18T19:17:39;2.30;99.90
44695;DHT22;32845;59.422;17.930;2022-12-18T19:22:09;2.20;99.90
44695;DHT22;32845;59.422;17.930;2022-12-18T19:26:40;2.20;99.90
44695;DHT22;32845;59.422;17.930;2022-12-18T19:31:14;2.20;99.90
44695;DHT22;32845;59.422;17.930;2022-12-18T19:35:45;2.10;99.90
44695;DHT22;32845;59.422;17.930;2022-12-18T19:40:15;2.10;99.90
44695;DHT22;32845;59.422;17.930;2022-12-18T19:44:46;2.10;99.90
44695;DHT22;32845;59.422;17.930;2022-12-18T19:49:17;2.10;99.90
44695;DHT22;32845;59.422;17.930;2022-12-18T19:53:48;2.00;99.90
44695;DHT22;32845;59.422;17.930;2022-12-18T19:58:19;2.00;99.90
44695;DHT22;32845;59.422;17.930;2022-12-18T20:02:49;2.00;99.90
44695;DHT22;32845;59.422;17.930;2022-12-18T20:07:20;2.00;99.90
44695;DHT22;32845;59.422;17.930;2022-12-18T20:11:51;2.00;99.90
44695;DHT22;32845;59.422;17.930;2022-12-18T20:16:21;1.90;99.90
44695;DHT22;32845;59.422;17.930;2022-12-18T20:21:04;1.80;99.90
44695;DHT22;32845;59.422;17.930;2022-12-18T20:25:37;1.80;99.90
44695;DHT22;32845;59.422;17.930;2022-12-18T20:30:08;1.70;99.90
44695;DHT22;32845;59.422;17.930;2022-12-18T20:34:39;1.70;99.90
44695;DHT22;32845;59.422;17.930;2022-12-18T20:39:10;1.60;99.90
44695;DHT22;32845;59.422;17.930;2022-12-18T20:43:41;1.60;99.90
44695;DHT22;32845;59.422;17.930;2022-12-18T20:48:12;1.60;99.90
44695;DHT22;32845;59.422;17.930;2022-12-18T20:52:42;1.50;99.90
44695;DHT22;32845;59.422;17.930;2022-12-18T20:57:13;1.40;99.90
44695;DHT22;32845;59.422;17.930;2022-12-18T21:01:44;1.40;99.90
44695;DHT22;32845;59.422;17.930;2022-12-18T21:06:17;1.40;99.90
44695;DHT22;32845;59.422;17.930;2022-12-18T21:10:54;1.30;99.90
44695;DHT22;32845;59.422;17.930;2022-12-18T21:15:25;1.00;99.90
44695;DHT22;32845;59.422;17.930;2022-12-18T21:19:56;0.90;99.90
44695;DHT22;32845;59.422;17.930;2022-12-18T21:24:26;0.80;99.90
44695;DHT22;32845;59.422;17.930;2022-12-18T21:29:01;0.70;99.90
44695;DHT22;32845;59.422;17.930;2022-12-18T21:33:32;0.60;99.90
44695;DHT22;32845;59.422;17.930;2022-12-18T21:38:02;0.60;99.90
44695;DHT22;32845;59.422;17.930;2022-12-18T21:42:33;0.50;99.90
44695;DHT22;32845;59.422;17.930;2022-12-18T21:47:23;0.50;99.90
44695;DHT22;32845;59.422;17.930;2022-12-18T21:51:58;0.30;99.90
44695;DHT22;32845;59.422;17.930;2022-12-18T22:01:13;0.10;99.90
44695;DHT22;32845;59.422;17.930;2022-12-18T22:05:44;0.00;99.90
44695;DHT22;32845;59.422;17.930;2022-12-18T22:10:14;-0.10;99.90
44695;DHT22;32845;59.422;17.930;2022-12-18T22:14:50;-0.10;99.90
44695;DHT22;32845;59.422;17.930;2022-12-18T22:19:21;-0.10;99.90
44695;DHT22;32845;59.422;17.930;2022-12-18T22:23:56;-0.10;99.90
44695;DHT22;32845;59.422;17.930;2022-12-18T22:28:30;-0.10;99.90
44695;DHT22;32845;59.422;17.930;2022-12-18T22:33:19;0.00;99.90
44695;DHT22;32845;59.422;17.930;2022-12-18T22:37:50;0.10;99.90
44695;DHT22;32845;59.422;17.930;2022-12-18T22:42:20;0.00;99.90
44695;DHT22;32845;59.422;17.930;2022-12-18T22:46:53;0.00;99.90
44695;DHT22;32845;59.422;17.930;2022-12-18T22:51:24;0.10;99.90
44695;DHT22;32845;59.422;17.930;2022-12-18T22:56:01;0.20;99.90
44695;DHT22;32845;59.422;17.930;2022-12-18T23:00:31;0.30;99.90
44695;DHT22;32845;59.422;17.930;2022-12-18T23:05:02;0.40;99.90
44695;DHT22;32845;59.422;17.930;2022-12-18T23:09:33;0.40;99.90
44695;DHT22;32845;59.422;17.930;2022-12-18T23:14:09;0.40;99.90
44695;DHT22;32845;59.422;17.930;2022-12-18T23:18:40;0.40;99.90
44695;DHT22;32845;59.422;17.930;2022-12-18T23:23:11;0.50;99.90
44695;DHT22;32845;59.422;17.930;2022-12-18T23:27:42;0.50;99.90
44695;DHT22;32845;59.422;17.930;2022-12-18T23:32:18;0.50;99.90
44695;DHT22;32845;59.422;17.930;2022-12-18T23:36:48;0.40;99.90
44695;DHT22;32845;59.422;17.930;2022-12-18T23:41:21;0.50;99.90
44695;DHT22;32845;59.422;17.930;2022-12-18T23:45:52;0.50;99.90
44695;DHT22;32845;59.422;17.930;2022-12-18T23:50:23;0.50;99.90
44695;DHT22;32845;59.422;17.930;2022-12-18T23:54:54;0.50;99.90
44695;DHT22;32845;59.422;17.930;2022-12-18T23:59:25;0.40;99.90
